createdAt,value
2018-07-07T00:05:36.819Z,16.40
2018-07-07T00:10:39.875Z,16.40
2018-07-07T00:15:42.951Z,16.30
2018-07-07T00:20:46.006Z,16.20
2018-07-07T00:25:49.063Z,16.20
2018-07-07T00:30:52.413Z,16.10
2018-07-07T00:35:55.602Z,16.00
2018-07-07T00:40:58.641Z,15.90
2018-07-07T00:46:01.940Z,15.70
2018-07-07T00:51:05.245Z,15.40
2018-07-07T00:56:08.419Z,15.30
2018-07-07T01:06:33.741Z,15.20
2018-07-07T01:11:36.838Z,15.20
2018-07-07T01:16:39.928Z,15.00
2018-07-07T01:21:42.974Z,14.70
2018-07-07T01:26:46.086Z,14.40
2018-07-07T01:32:03.671Z,14.10
2018-07-07T01:37:06.876Z,14.10
2018-07-07T01:42:09.960Z,14.00
2018-07-07T01:47:13.054Z,13.90
2018-07-07T01:52:24.601Z,13.60
2018-07-07T01:57:27.893Z,13.50
2018-07-07T02:02:32.132Z,13.30
2018-07-07T02:07:35.583Z,13.20
2018-07-07T02:12:38.705Z,13.00
2018-07-07T02:17:41.849Z,12.90
2018-07-07T02:22:45.051Z,13.00
2018-07-07T02:27:48.204Z,13.00
2018-07-07T02:32:51.233Z,12.70
2018-07-07T02:37:54.568Z,12.60
2018-07-07T02:42:57.620Z,12.40
2018-07-07T02:48:00.700Z,12.30
2018-07-07T02:58:06.670Z,12.00
2018-07-07T03:03:33.708Z,11.90
2018-07-07T03:24:32.918Z,11.80
2018-07-07T03:29:35.964Z,11.60
2018-07-07T03:34:39.030Z,11.50
2018-07-07T03:39:42.100Z,11.40
2018-07-07T03:44:45.161Z,11.30
2018-07-07T03:49:48.372Z,11.30
2018-07-07T03:54:57.955Z,11.30
2018-07-07T04:00:02.523Z,11.30
2018-07-07T04:05:05.701Z,11.30
2018-07-07T04:10:09.814Z,11.40
2018-07-07T04:15:12.849Z,11.60
2018-07-07T04:20:15.942Z,11.70
2018-07-07T04:25:19.010Z,12.00
2018-07-07T04:30:22.245Z,12.20
2018-07-07T04:35:25.303Z,12.50
2018-07-07T04:40:30.134Z,12.90
2018-07-07T04:45:33.411Z,13.20
2018-07-07T04:50:36.951Z,13.60
2018-07-07T04:55:40.310Z,13.60
2018-07-07T05:00:50.515Z,13.60
2018-07-07T05:05:53.572Z,13.60
2018-07-07T05:10:56.645Z,14.00
2018-07-07T05:16:00.087Z,14.50
2018-07-07T05:21:03.466Z,14.90
2018-07-07T05:26:06.657Z,15.30
2018-07-07T05:31:09.776Z,15.50
2018-07-07T05:36:13.399Z,15.90
2018-07-07T05:41:16.456Z,16.10
2018-07-07T05:46:19.930Z,16.40
2018-07-07T05:51:37.096Z,16.70
2018-07-07T05:56:40.219Z,17.00
2018-07-07T06:01:43.882Z,17.30
2018-07-07T06:06:47.091Z,17.50
2018-07-07T06:11:50.409Z,17.70
2018-07-07T06:16:53.565Z,18.00
2018-07-07T06:21:56.773Z,18.20
2018-07-07T06:32:02.737Z,18.50
2018-07-07T06:42:33.045Z,18.80
2018-07-07T06:47:36.115Z,19.00
2018-07-07T06:52:39.401Z,19.10
2018-07-07T06:57:42.445Z,19.40
2018-07-07T07:02:45.553Z,19.50
2018-07-07T07:07:48.699Z,19.70
2018-07-07T07:12:51.757Z,19.80
2018-07-07T07:17:54.969Z,20.00
2018-07-07T07:22:58.076Z,20.20
2018-07-07T07:28:01.400Z,20.30
2018-07-07T07:33:04.452Z,20.60
2018-07-07T07:43:17.448Z,21.00
2018-07-07T07:48:35.490Z,21.20
2018-07-07T07:59:35.037Z,21.50
2018-07-07T08:04:38.558Z,21.60
2018-07-07T08:09:41.686Z,21.60
2018-07-07T08:14:53.482Z,21.50
2018-07-07T08:19:56.582Z,21.60
2018-07-07T08:24:59.652Z,21.70
2018-07-07T08:30:02.794Z,21.90
2018-07-07T08:35:06.199Z,22.00
2018-07-07T08:40:12.873Z,22.10
2018-07-07T08:45:18.009Z,22.10
2018-07-07T08:52:29.046Z,22.20
2018-07-07T08:57:33.820Z,22.20
2018-07-07T09:02:37.119Z,22.40
2018-07-07T09:07:42.816Z,22.50
2018-07-07T09:12:46.606Z,22.70
2018-07-07T09:17:54.887Z,22.70
2018-07-07T09:22:58.233Z,22.70
2018-07-07T09:28:01.291Z,22.80
2018-07-07T09:38:07.201Z,22.80
2018-07-07T09:43:10.305Z,22.80
2018-07-07T09:48:13.689Z,22.80
2018-07-07T09:53:16.821Z,22.70
2018-07-07T09:58:19.992Z,22.90
2018-07-07T10:03:23.196Z,23.10
2018-07-07T10:08:26.259Z,23.30
2018-07-07T10:13:29.376Z,23.30
2018-07-07T10:23:35.535Z,23.40
2018-07-07T10:28:38.942Z,23.50
2018-07-07T10:33:43.611Z,23.50
2018-07-07T10:38:46.762Z,23.60
2018-07-07T10:43:49.866Z,23.70
2018-07-07T10:48:54.020Z,23.70
2018-07-07T10:53:59.817Z,23.70
2018-07-07T10:59:05.822Z,23.80
2018-07-07T11:04:09.048Z,23.80
2018-07-07T11:09:12.159Z,23.80
2018-07-07T11:14:15.317Z,23.90
2018-07-07T11:19:18.505Z,24.00
2018-07-07T11:24:21.725Z,24.00
2018-07-07T11:29:47.436Z,24.00
2018-07-07T11:34:50.593Z,24.00
2018-07-07T11:39:54.057Z,24.10
2018-07-07T11:44:59.266Z,24.20
2018-07-07T11:50:04.448Z,24.20
2018-07-07T11:55:16.502Z,24.20
2018-07-07T12:00:19.709Z,24.10
2018-07-07T12:05:23.190Z,24.10
2018-07-07T12:10:26.399Z,24.20
2018-07-07T12:15:29.648Z,24.30
2018-07-07T12:20:34.493Z,24.30
2018-07-07T12:25:45.488Z,24.30
2018-07-07T12:30:54.388Z,24.30
2018-07-07T12:35:57.971Z,24.30
2018-07-07T12:41:01.504Z,24.30
2018-07-07T12:46:04.690Z,24.40
2018-07-07T12:51:08.001Z,24.40
2018-07-07T12:56:11.761Z,24.50
2018-07-07T13:01:15.235Z,24.60
2018-07-07T13:06:30.302Z,24.60
2018-07-07T13:11:33.377Z,24.70
2018-07-07T13:16:36.756Z,24.70
2018-07-07T13:21:40.283Z,24.80
2018-07-07T13:26:45.053Z,24.80
2018-07-07T13:31:49.960Z,24.80
2018-07-07T13:36:53.010Z,24.90
2018-07-07T13:41:57.446Z,24.90
2018-07-07T13:47:00.549Z,24.90
2018-07-07T13:52:03.740Z,24.90
2018-07-07T13:57:06.822Z,25.00
2018-07-07T14:02:10.210Z,25.00
2018-07-07T14:07:13.563Z,25.00
2018-07-07T14:12:16.841Z,25.00
2018-07-07T14:17:23.455Z,25.10
2018-07-07T14:22:26.636Z,25.10
2018-07-07T14:32:33.474Z,25.20
2018-07-07T14:37:36.519Z,25.30
2018-07-07T14:42:50.702Z,25.30
2018-07-07T14:47:55.118Z,25.30
2018-07-07T14:52:58.644Z,25.50
2018-07-07T14:58:01.880Z,25.50
2018-07-07T15:03:05.093Z,25.40
2018-07-07T15:08:24.645Z,25.60
2018-07-07T15:13:27.962Z,25.60
2018-07-07T15:18:32.010Z,25.60
2018-07-07T15:23:35.577Z,25.70
2018-07-07T15:28:38.748Z,25.90
2018-07-07T15:33:41.873Z,25.90
2018-07-07T15:38:46.460Z,26.00
2018-07-07T15:43:49.855Z,26.10
2018-07-07T15:48:53.137Z,26.20
2018-07-07T15:53:56.901Z,26.10
2018-07-07T15:59:00.074Z,26.10
2018-07-07T16:04:03.221Z,26.10
2018-07-07T16:09:07.007Z,26.20
2018-07-07T16:14:10.139Z,26.30
2018-07-07T16:19:13.264Z,26.30
2018-07-07T16:24:24.536Z,26.30
2018-07-07T16:29:27.801Z,26.20
2018-07-07T16:34:31.620Z,26.20
2018-07-07T16:39:59.106Z,26.20
2018-07-07T16:45:02.249Z,26.30
2018-07-07T16:50:05.440Z,26.30
2018-07-07T16:55:08.553Z,26.30
2018-07-07T17:00:12.651Z,26.20
2018-07-07T17:05:15.718Z,26.20
2018-07-07T17:10:19.553Z,26.10
2018-07-07T17:15:22.939Z,26.00
2018-07-07T17:20:26.252Z,25.80
2018-07-07T17:26:04.845Z,25.70
2018-07-07T17:31:08.062Z,25.60
2018-07-07T17:36:11.464Z,25.60
2018-07-07T17:41:14.666Z,25.60
2018-07-07T17:46:18.012Z,25.60
2018-07-07T17:51:21.353Z,25.50
2018-07-07T17:56:25.047Z,25.50
2018-07-07T18:01:29.889Z,25.30
2018-07-07T18:06:33.203Z,25.20
2018-07-07T18:11:38.155Z,25.00
2018-07-07T18:16:41.198Z,24.80
2018-07-07T18:21:45.111Z,24.60
2018-07-07T18:26:48.277Z,24.40
2018-07-07T18:31:51.464Z,24.30
2018-07-07T18:36:54.682Z,24.10
2018-07-07T18:41:57.852Z,23.90
2018-07-07T18:47:01.141Z,23.80
2018-07-07T18:52:21.813Z,23.60
2018-07-07T19:02:34.421Z,23.30
2018-07-07T19:07:37.714Z,23.20
2018-07-07T19:12:40.962Z,23.00
2018-07-07T19:17:44.198Z,22.80
2018-07-07T19:22:52.874Z,22.70
2018-07-07T19:27:56.296Z,22.50
2018-07-07T19:33:04.821Z,22.40
2018-07-07T19:38:08.018Z,22.30
2018-07-07T19:43:28.914Z,22.10
2018-07-07T19:48:34.894Z,22.00
2018-07-07T19:53:38.293Z,21.80
2018-07-07T19:58:41.474Z,21.70
2018-07-07T20:03:44.590Z,21.60
2018-07-07T20:08:57.046Z,21.40
2018-07-07T20:14:00.297Z,21.30
2018-07-07T20:19:28.369Z,21.10
2018-07-07T20:24:32.733Z,21.00
2018-07-07T20:29:35.913Z,20.80
2018-07-07T20:34:39.263Z,20.60
2018-07-07T20:39:42.414Z,20.50
2018-07-07T20:49:48.323Z,20.60
2018-07-07T20:54:51.380Z,20.40
2018-07-07T20:59:54.433Z,20.20
2018-07-07T21:04:58.391Z,20.00
2018-07-07T21:15:21.939Z,19.80
2018-07-07T21:20:26.066Z,19.60
2018-07-07T21:25:29.191Z,19.50
2018-07-07T21:30:32.233Z,19.40
2018-07-07T21:35:35.278Z,19.30
2018-07-07T21:40:38.338Z,19.20
2018-07-07T21:50:44.292Z,19.00
2018-07-07T21:56:00.961Z,18.90
2018-07-07T22:01:16.018Z,18.80
2018-07-07T22:06:25.257Z,18.70
2018-07-07T22:11:29.980Z,18.60
2018-07-07T22:21:57.416Z,18.40
2018-07-07T22:27:15.799Z,18.30
2018-07-07T22:32:25.896Z,18.20
2018-07-07T22:37:29.029Z,18.10
2018-07-07T22:42:32.292Z,18.00
2018-07-07T22:47:35.572Z,17.80
2018-07-07T22:52:38.617Z,17.80
2018-07-07T22:57:55.899Z,17.70
2018-07-07T23:02:59.885Z,17.60
2018-07-07T23:08:03.164Z,17.50
2018-07-07T23:13:06.393Z,17.40
2018-07-07T23:18:09.416Z,17.30
2018-07-07T23:23:12.436Z,17.20
2018-07-07T23:28:16.992Z,17.20
2018-07-07T23:33:20.169Z,17.30
2018-07-07T23:38:23.213Z,17.20
2018-07-07T23:43:26.829Z,17.10
2018-07-07T23:48:29.874Z,17.10
2018-07-07T23:53:32.924Z,17.10
2018-07-07T23:58:36.002Z,17.00
